createdAt,value
2018-01-31T01:52:41.622Z,4.30
2018-01-31T01:55:11.404Z,4.30
2018-01-31T01:57:40.376Z,4.30
2018-01-31T02:00:09.371Z,4.30
2018-01-31T02:02:39.132Z,4.30
2018-01-31T02:05:08.138Z,4.40
2018-01-31T02:07:37.209Z,4.40
2018-01-31T02:10:06.216Z,4.50
2018-01-31T02:12:35.191Z,4.50
2018-01-31T02:15:05.047Z,4.50
2018-01-31T02:17:34.791Z,4.50
2018-01-31T02:20:03.766Z,4.50
2018-01-31T02:22:32.812Z,4.60
2018-01-31T02:25:01.756Z,4.60
2018-01-31T02:27:30.785Z,4.70
2018-01-31T02:30:00.172Z,4.70
2018-01-31T02:32:29.160Z,4.70
2018-01-31T02:34:58.461Z,4.70
2018-01-31T02:37:27.754Z,4.70
2018-01-31T02:42:40.237Z,4.70
2018-01-31T02:45:09.898Z,4.80
2018-01-31T02:47:39.213Z,4.90
2018-01-31T02:50:09.348Z,4.80
2018-01-31T02:52:38.364Z,4.80
2018-01-31T02:55:07.873Z,4.70
2018-01-31T02:57:37.610Z,4.80
2018-01-31T03:00:08.272Z,4.90
2018-01-31T03:02:37.645Z,4.80
2018-01-31T03:05:06.623Z,4.80
2018-01-31T03:07:35.629Z,4.80
2018-01-31T03:10:04.696Z,4.80
2018-01-31T03:12:33.697Z,4.80
2018-01-31T03:15:03.073Z,4.90
2018-01-31T03:17:32.037Z,4.90
2018-01-31T03:20:02.163Z,4.80
2018-01-31T03:22:31.929Z,4.80
2018-01-31T03:25:01.293Z,4.80
2018-01-31T03:27:30.325Z,4.90
2018-01-31T03:30:00.106Z,4.90
2018-01-31T03:32:29.114Z,5.00
2018-01-31T03:34:58.387Z,5.00
2018-01-31T03:37:27.772Z,5.10
2018-01-31T03:39:57.489Z,5.10
2018-01-31T03:42:27.232Z,5.20
2018-01-31T03:44:56.776Z,5.20
2018-01-31T03:47:27.538Z,5.20
2018-01-31T03:49:57.239Z,5.20
2018-01-31T03:52:26.263Z,5.30
2018-01-31T03:54:55.665Z,5.30
2018-01-31T03:57:24.934Z,5.40
2018-01-31T03:59:53.918Z,5.40
2018-01-31T04:02:22.919Z,5.50
2018-01-31T04:04:51.897Z,5.40
2018-01-31T04:07:21.651Z,5.50
2018-01-31T04:09:50.618Z,5.50
2018-01-31T04:12:20.383Z,5.50
2018-01-31T04:14:49.369Z,5.50
2018-01-31T04:17:18.385Z,5.50
2018-01-31T04:19:47.373Z,5.50
2018-01-31T04:22:16.381Z,5.50
2018-01-31T04:24:46.139Z,5.50
2018-01-31T04:27:15.155Z,5.50
2018-01-31T04:29:44.145Z,5.40
2018-01-31T04:32:13.189Z,5.30
2018-01-31T04:34:42.357Z,5.20
2018-01-31T04:37:11.310Z,5.30
2018-01-31T04:39:40.292Z,5.30
2018-01-31T04:42:09.283Z,5.30
2018-01-31T04:44:39.037Z,5.40
2018-01-31T04:47:16.146Z,5.40
2018-01-31T04:49:45.957Z,5.40
2018-01-31T04:52:16.276Z,5.40
2018-01-31T04:54:45.231Z,5.40
2018-01-31T04:57:15.299Z,5.50
2018-01-31T04:59:44.294Z,5.60
2018-01-31T05:02:13.379Z,5.60
2018-01-31T05:04:43.130Z,5.60
2018-01-31T05:07:12.521Z,5.50
2018-01-31T05:09:41.501Z,5.60
2018-01-31T05:12:10.522Z,5.60
2018-01-31T05:14:39.496Z,5.60
2018-01-31T05:17:08.530Z,5.70
2018-01-31T05:19:37.550Z,5.70
2018-01-31T05:22:06.591Z,5.80
2018-01-31T05:24:35.559Z,5.80
2018-01-31T05:27:04.610Z,5.80
2018-01-31T05:29:33.661Z,5.80
2018-01-31T05:32:02.634Z,5.80
2018-01-31T05:34:31.644Z,5.90
2018-01-31T05:37:00.654Z,6.10
2018-01-31T05:39:29.677Z,6.10
2018-01-31T05:41:58.680Z,6.20
2018-01-31T05:44:28.461Z,6.20
2018-01-31T05:46:57.457Z,6.20
2018-01-31T05:49:26.475Z,6.30
2018-01-31T05:51:55.480Z,6.30
2018-01-31T05:54:25.332Z,6.40
2018-01-31T05:56:54.445Z,6.40
2018-01-31T05:59:24.192Z,6.40
2018-01-31T06:01:56.695Z,6.60
2018-01-31T06:04:25.869Z,6.70
2018-01-31T06:06:55.633Z,6.70
2018-01-31T06:09:24.932Z,6.60
2018-01-31T06:11:53.948Z,6.70
2018-01-31T06:14:23.852Z,6.80
2018-01-31T06:16:52.875Z,6.80
2018-01-31T06:19:21.852Z,6.90
2018-01-31T06:21:50.878Z,7.00
2018-01-31T06:24:20.608Z,7.10
2018-01-31T06:26:49.644Z,7.10
2018-01-31T06:29:18.691Z,7.20
2018-01-31T06:31:47.675Z,7.30
2018-01-31T06:34:17.059Z,7.30
2018-01-31T06:36:46.877Z,7.30
2018-01-31T06:39:16.838Z,7.30
2018-01-31T06:41:45.889Z,7.40
2018-01-31T06:44:16.497Z,7.50
2018-01-31T06:46:46.260Z,7.50
2018-01-31T06:49:15.272Z,7.60
2018-01-31T06:51:44.247Z,7.50
2018-01-31T06:54:13.261Z,7.60
2018-01-31T06:56:42.296Z,7.60
2018-01-31T06:59:12.056Z,7.70
2018-01-31T07:01:41.033Z,7.80
2018-01-31T07:04:10.065Z,7.80
2018-01-31T07:06:39.150Z,7.90
2018-01-31T07:09:08.189Z,7.80
2018-01-31T07:11:38.247Z,7.90
2018-01-31T07:14:07.722Z,7.90
2018-01-31T07:16:36.755Z,7.90
2018-01-31T07:19:05.733Z,8.00
2018-01-31T07:21:34.783Z,8.00
2018-01-31T07:24:04.598Z,8.10
2018-01-31T07:26:34.328Z,8.20
2018-01-31T07:29:03.705Z,8.20
2018-01-31T07:31:32.725Z,8.20
2018-01-31T07:34:01.703Z,8.20
2018-01-31T07:36:30.788Z,8.30
2018-01-31T07:39:00.072Z,8.20
2018-01-31T07:41:29.144Z,8.30
2018-01-31T07:43:58.158Z,8.30
2018-01-31T07:46:27.522Z,8.30
2018-01-31T07:48:56.513Z,8.40
2018-01-31T07:51:25.902Z,8.50
2018-01-31T07:53:55.733Z,8.50
2018-01-31T07:56:24.733Z,8.50
2018-01-31T07:58:53.720Z,8.50
2018-01-31T08:01:22.741Z,8.60
2018-01-31T08:03:51.710Z,8.60
2018-01-31T08:06:20.901Z,8.60
2018-01-31T08:08:49.950Z,8.60
2018-01-31T08:11:19.317Z,8.70
2018-01-31T08:13:49.245Z,8.70
2018-01-31T08:16:40.931Z,8.60
2018-01-31T08:19:09.961Z,9.00
2018-01-31T08:21:38.943Z,8.60
2018-01-31T08:24:07.939Z,8.60
2018-01-31T08:26:38.048Z,8.60
2018-01-31T08:31:47.104Z,8.50
2018-01-31T08:34:37.742Z,8.50
2018-01-31T08:37:06.799Z,8.50
2018-01-31T08:39:41.521Z,8.60
2018-01-31T08:42:11.399Z,8.60
2018-01-31T08:44:45.999Z,8.60
2018-01-31T08:47:15.629Z,8.50
2018-01-31T08:50:18.865Z,8.50
2018-01-31T08:52:50.149Z,8.60
2018-01-31T08:55:20.006Z,8.60
2018-01-31T08:57:49.888Z,8.60
2018-01-31T09:00:18.945Z,8.90
2018-01-31T09:02:48.249Z,9.00
2018-01-31T09:05:18.432Z,9.10
2018-01-31T09:07:49.466Z,9.00
2018-01-31T09:10:28.027Z,9.10
2018-01-31T09:12:57.062Z,8.90
2018-01-31T09:15:57.869Z,8.80
2018-01-31T09:18:26.881Z,8.70
2018-01-31T09:20:55.959Z,8.70
2018-01-31T09:23:41.591Z,8.70
2018-01-31T09:26:11.101Z,8.70
2018-01-31T09:28:55.251Z,8.70
2018-01-31T09:34:04.576Z,8.70
2018-01-31T09:36:34.162Z,8.80
2018-01-31T09:39:04.012Z,8.80
2018-01-31T09:41:33.340Z,8.70
2018-01-31T09:44:03.274Z,8.80
2018-01-31T09:46:33.424Z,8.80
2018-01-31T09:49:03.080Z,8.80
2018-01-31T09:57:25.266Z,9.00
2018-01-31T10:00:07.689Z,9.10
2018-01-31T10:16:19.826Z,9.20
2018-01-31T10:18:48.852Z,9.20
2018-01-31T10:21:19.374Z,9.30
2018-01-31T10:23:50.381Z,9.20
2018-01-31T10:26:20.499Z,9.30
2018-01-31T10:28:49.601Z,9.30
2018-01-31T10:31:20.252Z,9.20
2018-01-31T10:33:50.937Z,9.30
2018-01-31T10:36:20.038Z,9.30
2018-01-31T10:38:52.346Z,9.40
2018-01-31T10:41:22.423Z,9.40
2018-01-31T10:43:52.440Z,9.50
2018-01-31T10:46:24.104Z,9.50
2018-01-31T10:48:53.488Z,9.50
2018-01-31T10:51:22.649Z,9.60
2018-01-31T10:58:51.925Z,9.50
2018-01-31T11:01:22.627Z,9.50
2018-01-31T11:03:51.645Z,9.50
2018-01-31T11:06:20.709Z,9.50
2018-01-31T11:08:50.767Z,9.60
2018-01-31T11:11:19.993Z,9.50
2018-01-31T11:13:51.269Z,9.50
2018-01-31T11:16:21.128Z,9.50
2018-01-31T11:18:51.235Z,9.40
2018-01-31T11:21:20.299Z,9.40
2018-01-31T11:23:56.565Z,9.40
2018-01-31T11:26:25.994Z,9.40
2018-01-31T11:29:00.718Z,9.40
2018-01-31T11:31:29.996Z,9.50
2018-01-31T11:37:09.072Z,9.30
2018-01-31T11:39:39.264Z,9.40
2018-01-31T11:42:09.665Z,9.40
2018-01-31T11:44:38.770Z,9.40
2018-01-31T11:47:07.821Z,9.50
2018-01-31T11:49:37.398Z,9.50
2018-01-31T11:52:07.194Z,9.40
2018-01-31T11:54:36.329Z,9.30
2018-01-31T11:57:05.977Z,9.30
2018-01-31T11:59:35.987Z,9.30
2018-01-31T12:02:05.830Z,9.10
2018-01-31T12:04:36.510Z,8.90
2018-01-31T12:07:08.355Z,8.70
2018-01-31T12:15:24.740Z,8.20
2018-01-31T12:17:54.566Z,8.20
2018-01-31T12:20:35.824Z,8.30
2018-01-31T12:23:16.773Z,8.30
2018-01-31T12:26:07.496Z,8.40
2018-01-31T12:28:42.316Z,8.50
2018-01-31T12:31:26.464Z,8.40
2018-01-31T12:34:08.817Z,8.50
2018-01-31T12:36:50.672Z,8.50
2018-01-31T12:39:19.943Z,8.60
2018-01-31T12:41:49.638Z,8.50
2018-01-31T12:44:18.615Z,8.70
2018-01-31T12:47:00.140Z,8.80
2018-01-31T12:49:40.806Z,8.60
2018-01-31T12:52:34.379Z,8.50
2018-01-31T12:55:15.272Z,8.60
2018-01-31T12:57:57.197Z,8.50
2018-01-31T13:00:38.532Z,8.60
2018-01-31T13:03:20.293Z,8.60
2018-01-31T13:06:01.173Z,8.40
2018-01-31T13:08:41.978Z,8.40
2018-01-31T13:11:22.895Z,8.30
2018-01-31T13:27:25.906Z,8.00
2018-01-31T13:30:19.418Z,8.00
2018-01-31T13:33:16.042Z,8.00
2018-01-31T13:35:56.641Z,8.00
2018-01-31T13:38:37.302Z,8.00
2018-01-31T13:41:18.077Z,7.90
2018-01-31T13:43:58.963Z,7.90
2018-01-31T13:46:39.689Z,8.00
2018-01-31T13:49:32.344Z,8.10
2018-01-31T13:52:18.820Z,8.20
2018-01-31T13:55:00.345Z,8.20
2018-01-31T13:57:41.882Z,8.10
2018-01-31T14:00:22.809Z,8.10
2018-01-31T14:03:04.552Z,8.10
2018-01-31T14:05:46.314Z,8.20
2018-01-31T14:08:27.201Z,8.20
2018-01-31T14:14:08.340Z,8.10
2018-01-31T14:16:49.482Z,8.20
2018-01-31T14:19:30.662Z,8.20
2018-01-31T14:22:12.140Z,8.10
2018-01-31T14:25:05.453Z,8.20
2018-01-31T14:27:46.141Z,8.10
2018-01-31T14:30:26.683Z,8.10
2018-01-31T14:33:07.505Z,8.10
2018-01-31T14:35:49.022Z,8.00
2018-01-31T14:38:18.308Z,8.00
2018-01-31T14:40:47.130Z,8.00
2018-01-31T14:43:15.717Z,7.90
2018-01-31T14:45:44.462Z,7.90
2018-01-31T14:48:12.933Z,7.90
2018-01-31T14:50:42.221Z,7.80
2018-01-31T14:53:10.654Z,7.80
2018-01-31T14:55:39.174Z,7.90
2018-01-31T14:58:08.027Z,7.90
2018-01-31T15:00:36.705Z,7.80
2018-01-31T15:03:05.226Z,7.70
2018-01-31T15:05:34.461Z,7.60
2018-01-31T15:08:03.272Z,7.30
2018-01-31T15:10:31.703Z,7.20
2018-01-31T15:13:00.955Z,7.00
2018-01-31T15:15:29.392Z,6.80
2018-01-31T15:17:57.883Z,6.60
2018-01-31T15:20:26.769Z,6.50
2018-01-31T15:22:55.614Z,6.50
2018-01-31T15:25:24.112Z,6.40
2018-01-31T15:27:52.606Z,6.50
2018-01-31T15:30:21.808Z,6.40
2018-01-31T15:32:51.055Z,6.40
2018-01-31T15:35:19.522Z,6.50
2018-01-31T15:37:47.970Z,6.50
2018-01-31T15:40:16.444Z,6.50
2018-01-31T15:42:44.901Z,6.50
2018-01-31T15:45:13.372Z,6.40
2018-01-31T15:47:41.839Z,6.40
2018-01-31T15:50:11.429Z,6.30
2018-01-31T15:52:40.151Z,6.30
2018-01-31T15:55:08.708Z,6.30
2018-01-31T15:57:37.182Z,6.30
2018-01-31T16:00:05.633Z,6.20
2018-01-31T16:02:34.195Z,6.10
2018-01-31T16:05:03.068Z,6.10
2018-01-31T16:07:31.523Z,6.10
2018-01-31T16:10:00.008Z,6.00
2018-01-31T16:12:28.438Z,6.00
2018-01-31T16:14:56.943Z,5.90
2018-01-31T16:17:25.863Z,5.80
2018-01-31T16:20:10.150Z,5.80
2018-01-31T16:22:39.125Z,5.80
2018-01-31T16:25:08.052Z,5.90
2018-01-31T16:27:49.233Z,5.80
2018-01-31T16:30:23.103Z,5.80
2018-01-31T16:33:04.011Z,5.80
2018-01-31T16:35:33.504Z,5.80
2018-01-31T16:38:03.913Z,5.80
2018-01-31T16:40:33.957Z,6.00
2018-01-31T16:43:03.676Z,6.10
2018-01-31T16:45:33.877Z,6.10
2018-01-31T16:48:03.197Z,6.10
2018-01-31T16:50:32.597Z,6.00
2018-01-31T16:53:01.593Z,6.10
2018-01-31T16:55:30.566Z,6.00
2018-01-31T16:57:59.635Z,5.90
2018-01-31T17:00:29.003Z,5.90
2018-01-31T17:02:58.747Z,5.90
2018-01-31T17:05:29.712Z,5.90
2018-01-31T17:07:58.948Z,5.90
2018-01-31T17:10:27.980Z,5.90
2018-01-31T17:12:57.072Z,5.90
2018-01-31T17:15:28.430Z,5.90
2018-01-31T17:17:59.246Z,5.90
2018-01-31T17:20:28.229Z,5.80
2018-01-31T17:22:57.200Z,5.80
2018-01-31T17:25:26.541Z,5.80
2018-01-31T17:27:55.946Z,5.70
2018-01-31T17:30:25.712Z,5.70
2018-01-31T17:32:55.489Z,5.70
2018-01-31T17:35:25.245Z,5.60
2018-01-31T17:37:55.207Z,5.70
2018-01-31T17:40:25.286Z,5.50
2018-01-31T17:42:54.245Z,5.50
2018-01-31T17:45:23.351Z,5.60
2018-01-31T17:47:52.351Z,5.70
2018-01-31T17:53:01.101Z,5.60
2018-01-31T17:55:30.147Z,5.60
2018-01-31T17:57:59.169Z,5.70
2018-01-31T18:00:28.906Z,5.60
2018-01-31T18:02:57.906Z,5.50
2018-01-31T18:05:27.123Z,5.50
2018-01-31T18:07:56.596Z,5.30
2018-01-31T18:10:25.726Z,5.30
2018-01-31T18:12:55.443Z,5.30
2018-01-31T18:15:25.249Z,5.20
2018-01-31T18:17:54.990Z,5.30
2018-01-31T18:20:24.727Z,5.30
2018-01-31T18:22:54.485Z,5.30
2018-01-31T18:25:23.875Z,5.30
2018-01-31T18:27:53.677Z,5.30
2018-01-31T18:30:23.025Z,5.20
2018-01-31T18:32:52.262Z,5.20
2018-01-31T18:35:22.322Z,5.20
2018-01-31T18:37:51.615Z,5.10
2018-01-31T18:40:20.629Z,5.10
2018-01-31T18:42:49.623Z,5.10
2018-01-31T18:45:19.399Z,5.00
2018-01-31T18:47:49.150Z,4.90
2018-01-31T18:50:18.947Z,4.90
2018-01-31T18:52:48.443Z,5.00
2018-01-31T18:55:19.127Z,4.90
2018-01-31T18:57:48.167Z,5.00
2018-01-31T19:00:17.154Z,4.90
2018-01-31T19:02:46.693Z,4.80
2018-01-31T19:05:16.894Z,4.90
2018-01-31T19:07:46.699Z,5.00
2018-01-31T19:10:15.698Z,5.10
2018-01-31T19:12:44.659Z,5.20
2018-01-31T19:15:14.424Z,5.10
2018-01-31T19:17:43.456Z,5.20
2018-01-31T19:20:13.256Z,5.20
2018-01-31T19:22:42.268Z,5.20
2018-01-31T19:25:12.083Z,5.20
2018-01-31T19:27:41.818Z,5.20
2018-01-31T19:30:10.848Z,5.10
2018-01-31T19:32:40.291Z,5.20
2018-01-31T19:35:09.309Z,5.20
2018-01-31T19:37:38.343Z,5.20
2018-01-31T19:40:08.037Z,5.20
2018-01-31T19:42:37.821Z,5.10
2018-01-31T19:45:07.236Z,5.10
2018-01-31T19:47:36.669Z,5.20
2018-01-31T19:50:05.757Z,5.10
2018-01-31T19:52:34.772Z,5.10
2018-01-31T19:55:05.279Z,4.90
2018-01-31T19:57:35.054Z,4.90
2018-01-31T20:00:04.828Z,4.70
2018-01-31T20:02:34.572Z,4.70
2018-01-31T20:05:03.716Z,4.70
2018-01-31T20:07:32.724Z,4.70
2018-01-31T20:10:02.446Z,4.70
2018-01-31T20:12:31.411Z,4.70
2018-01-31T20:15:00.433Z,4.70
2018-01-31T20:17:30.254Z,4.60
2018-01-31T20:19:59.281Z,4.50
2018-01-31T20:22:28.262Z,4.50
2018-01-31T20:24:57.319Z,4.40
2018-01-31T20:27:27.117Z,4.40
2018-01-31T20:29:56.940Z,4.30
2018-01-31T20:32:28.085Z,4.40
2018-01-31T20:34:57.993Z,4.30
2018-01-31T20:37:27.133Z,4.20
2018-01-31T20:39:56.710Z,4.00
2018-01-31T20:42:25.757Z,4.20
2018-01-31T20:44:54.854Z,4.10
2018-01-31T20:47:23.901Z,4.10
2018-01-31T20:49:52.922Z,4.00
2018-01-31T20:52:22.062Z,4.00
2018-01-31T20:54:51.056Z,4.10
2018-01-31T20:57:20.820Z,4.10
2018-01-31T20:59:49.872Z,4.10
2018-01-31T21:02:19.622Z,4.10
2018-01-31T21:04:48.690Z,4.10
2018-01-31T21:07:17.690Z,4.10
2018-01-31T21:09:46.763Z,4.10
2018-01-31T21:12:16.533Z,4.10
2018-01-31T21:14:45.946Z,4.10
2018-01-31T21:17:14.950Z,4.20
2018-01-31T21:19:44.705Z,4.20
2018-01-31T21:22:13.759Z,4.10
2018-01-31T21:24:42.786Z,3.90
2018-01-31T21:27:12.194Z,3.80
2018-01-31T21:29:41.307Z,3.70
2018-01-31T21:32:10.307Z,3.70
2018-01-31T21:34:39.926Z,3.60
2018-01-31T21:37:09.027Z,3.50
2018-01-31T21:39:38.494Z,3.40
2018-01-31T21:42:07.466Z,3.30
2018-01-31T21:44:36.477Z,3.30
2018-01-31T21:47:05.449Z,3.20
2018-01-31T21:49:34.536Z,3.20
2018-01-31T21:52:03.907Z,3.20
2018-01-31T21:54:32.875Z,3.10
2018-01-31T21:57:01.912Z,3.10
2018-01-31T21:59:31.300Z,3.00
2018-01-31T22:02:00.260Z,3.10
2018-01-31T22:04:29.702Z,3.00
2018-01-31T22:06:58.730Z,3.00
2018-01-31T22:09:27.787Z,3.00
2018-01-31T22:11:57.669Z,2.90
2018-01-31T22:14:26.733Z,2.90
2018-01-31T22:16:56.474Z,2.80
2018-01-31T22:19:25.486Z,2.90
2018-01-31T22:21:54.417Z,2.90
2018-01-31T22:24:23.393Z,3.00
2018-01-31T22:26:53.128Z,2.90
2018-01-31T22:29:22.524Z,2.90
2018-01-31T22:31:51.532Z,2.80
2018-01-31T22:34:20.849Z,2.90
2018-01-31T22:36:49.847Z,2.90
2018-01-31T22:39:18.795Z,2.70
2018-01-31T22:41:47.718Z,2.60
2018-01-31T22:44:16.708Z,2.70
2018-01-31T22:46:45.735Z,2.60
2018-01-31T22:49:14.713Z,2.70
2018-01-31T22:51:44.059Z,2.60
2018-01-31T22:54:13.075Z,2.60
2018-01-31T22:56:42.019Z,2.60
2018-01-31T22:59:10.995Z,2.70
2018-01-31T23:01:39.979Z,2.70
2018-01-31T23:04:08.972Z,2.70
2018-01-31T23:06:38.504Z,2.60
2018-01-31T23:09:07.489Z,2.90
2018-01-31T23:11:43.162Z,2.60
2018-01-31T23:14:18.230Z,2.70
2018-01-31T23:16:47.612Z,2.70
2018-01-31T23:19:16.550Z,2.70
2018-01-31T23:21:46.378Z,2.60
2018-01-31T23:24:15.316Z,2.50
2018-01-31T23:26:44.211Z,2.50
2018-01-31T23:29:14.125Z,2.50
2018-01-31T23:31:43.082Z,2.50
2018-01-31T23:34:12.425Z,2.40
2018-01-31T23:36:42.174Z,2.30
2018-01-31T23:39:11.135Z,2.30
2018-01-31T23:41:40.235Z,2.20
2018-01-31T23:44:09.159Z,2.30
2018-01-31T23:46:38.997Z,2.30
2018-01-31T23:49:07.932Z,2.30
2018-01-31T23:51:36.885Z,2.20
2018-01-31T23:54:05.853Z,2.20
2018-01-31T23:56:35.564Z,2.20
2018-01-31T23:59:05.477Z,2.10
